Time;durP1;ratioP1;P1;durP2;ratioP2;P2;SDS_P1;SDS_P2;PMS_P1;PMS_P2;Temp;Humidity;BMP_temperature;BMP_pressure;BME280_temperature;BME280_humidity;BME280_pressure;Samples;Min_cycle;Max_cycle;Signal;HPM_P1;HPM_P2
2023/08/26 00:00:17;;;;;;;7.37;6.07;;;22.60;99.90;;;;;;5012789;28;20195;-71
2023/08/26 00:02:42;;;;;;;8.30;6.20;;;22.60;99.90;;;;;;5030338;28;20254;-70
2023/08/26 00:05:08;;;;;;;7.50;6.80;;;22.60;99.90;;;;;;5026418;28;20241;-71
2023/08/26 00:07:34;;;;;;;7.20;6.50;;;22.60;99.90;;;;;;5031677;28;20159;-70
2023/08/26 00:09:59;;;;;;;7.43;6.20;;;22.50;99.90;;;;;;5031363;28;20242;-70
2023/08/26 00:12:25;;;;;;;8.13;7.33;;;22.50;99.90;;;;;;5031797;28;20641;-71
2023/08/26 00:14:50;;;;;;;7.70;6.00;;;22.50;99.90;;;;;;5017538;28;20200;-70
2023/08/26 00:17:17;;;;;;;6.60;6.00;;;22.40;99.90;;;;;;5011648;28;20180;-70
2023/08/26 00:19:44;;;;;;;6.63;6.13;;;22.40;99.90;;;;;;5011279;28;20248;-71
2023/08/26 00:22:10;;;;;;;7.83;7.20;;;22.10;99.90;;;;;;5011768;28;20796;-72
2023/08/26 00:24:36;;;;;;;7.50;6.80;;;21.80;99.90;;;;;;5023578;28;20453;-70
2023/08/26 00:27:02;;;;;;;8.10;7.30;;;21.90;99.90;;;;;;5015596;28;20183;-70
2023/08/26 00:29:28;;;;;;;6.73;6.13;;;21.90;99.90;;;;;;5011225;28;20200;-71
2023/08/26 00:31:53;;;;;;;9.57;7.80;;;21.90;99.90;;;;;;5011788;28;20461;-70
2023/08/26 00:34:19;;;;;;;7.57;6.87;;;21.90;99.90;;;;;;5020689;28;20556;-71
2023/08/26 00:36:45;;;;;;;10.30;6.93;;;21.80;99.90;;;;;;5031076;28;20268;-71
2023/08/26 00:39:10;;;;;;;6.83;6.13;;;21.70;99.90;;;;;;5030921;28;20191;-71
2023/08/26 00:41:36;;;;;;;8.10;7.33;;;21.70;99.90;;;;;;5030926;28;20220;-70
2023/08/26 00:44:01;;;;;;;8.20;6.77;;;21.80;99.90;;;;;;5020992;28;20254;-71
2023/08/26 00:46:28;;;;;;;8.67;7.20;;;21.90;99.90;;;;;;5011295;28;20234;-69
2023/08/26 00:48:54;;;;;;;7.40;6.70;;;22.00;99.90;;;;;;5010955;28;20514;-71
2023/08/26 00:51:20;;;;;;;6.90;6.00;;;22.10;99.90;;;;;;5011176;28;20410;-70
2023/08/26 00:53:47;;;;;;;6.83;6.23;;;22.10;99.90;;;;;;5015866;28;20176;-70
2023/08/26 00:56:13;;;;;;;7.00;6.30;;;22.10;99.90;;;;;;5015652;28;20472;-70
2023/08/26 00:58:39;;;;;;;6.83;6.13;;;22.10;99.90;;;;;;5010985;28;20905;-71
2023/08/26 01:01:05;;;;;;;8.43;6.53;;;22.20;99.90;;;;;;5011050;28;20226;-71
2023/08/26 01:03:31;;;;;;;7.70;6.20;;;22.20;99.90;;;;;;5013560;28;20498;-71
2023/08/26 01:05:57;;;;;;;8.30;5.87;;;22.20;99.90;;;;;;5030566;28;20194;-71
2023/08/26 01:08:23;;;;;;;13.00;6.13;;;22.20;99.90;;;;;;5030631;28;20281;-71
2023/08/26 01:11:18;;;;;;;5.27;4.73;;;22.20;99.90;;;;;;5029652;28;20457;-70
2023/08/26 01:14:06;;;;;;;9.03;5.80;;;22.20;99.90;;;;;;5026410;28;20431;-70
2023/08/26 01:16:34;;;;;;;7.57;5.47;;;22.20;99.90;;;;;;5014389;28;20406;-71
2023/08/26 01:19:02;;;;;;;7.90;5.00;;;22.10;99.90;;;;;;5015031;28;20425;-70
2023/08/26 01:21:34;;;;;;;5.57;5.07;;;22.10;99.90;;;;;;5014624;28;20433;-70
2023/08/26 01:24:00;;;;;;;8.03;6.33;;;22.20;99.90;;;;;;5020733;28;20442;-70
2023/08/26 01:26:25;;;;;;;7.20;4.50;;;22.30;99.90;;;;;;5023592;28;20780;-70
2023/08/26 01:28:51;;;;;;;5.20;4.13;;;22.40;99.90;;;;;;5014848;28;20418;-70
2023/08/26 01:31:19;;;;;;;7.50;5.00;;;22.20;99.90;;;;;;5014640;28;20188;-70
2023/08/26 01:33:54;;;;;;;8.87;5.17;;;22.00;99.90;;;;;;5018535;28;20572;-69
2023/08/26 01:36:23;;;;;;;7.13;4.43;;;21.80;99.90;;;;;;5034913;28;20393;-71
2023/08/26 01:38:50;;;;;;;5.20;4.30;;;21.60;99.90;;;;;;5032812;28;20414;-71
2023/08/26 01:41:19;;;;;;;6.13;4.40;;;21.70;99.90;;;;;;5034159;28;20476;-70
2023/08/26 01:43:46;;;;;;;4.03;3.63;;;21.60;99.90;;;;;;5030635;28;20493;-70
2023/08/26 01:46:12;;;;;;;6.63;3.80;;;21.60;99.90;;;;;;5015290;28;20411;-71
2023/08/26 01:48:38;;;;;;;4.80;4.00;;;21.70;99.90;;;;;;5014461;28;20861;-70
2023/08/26 01:51:03;;;;;;;4.97;3.77;;;21.80;99.90;;;;;;5020468;28;20434;-69
2023/08/26 01:53:29;;;;;;;4.03;3.43;;;21.80;99.90;;;;;;5032734;28;20176;-70
2023/08/26 01:55:55;;;;;;;6.77;4.10;;;21.90;99.90;;;;;;5014370;28;20641;-70
2023/08/26 01:58:21;;;;;;;3.73;2.90;;;21.90;99.90;;;;;;5013653;28;20305;-70
2023/08/26 02:00:46;;;;;;;3.57;3.27;;;21.90;99.90;;;;;;5013912;28;20432;-69
2023/08/26 02:03:12;;;;;;;3.83;3.50;;;21.90;99.90;;;;;;5014023;28;20488;-70
2023/08/26 02:05:37;;;;;;;3.60;3.17;;;21.90;99.90;;;;;;5032302;28;20572;-70
2023/08/26 02:08:03;;;;;;;4.00;3.60;;;22.00;99.90;;;;;;5033980;28;20670;-70
2023/08/26 02:10:29;;;;;;;4.30;3.27;;;21.90;99.90;;;;;;5033827;28;20187;-70
2023/08/26 02:12:54;;;;;;;4.50;3.27;;;21.90;99.90;;;;;;5033443;28;20179;-70
2023/08/26 02:15:20;;;;;;;3.93;3.50;;;22.00;99.90;;;;;;5017649;28;20168;-70
2023/08/26 02:17:45;;;;;;;3.43;3.13;;;22.00;99.90;;;;;;5014215;28;20211;-70
2023/08/26 02:20:11;;;;;;;3.63;3.33;;;21.80;99.90;;;;;;5013505;28;20196;-71
2023/08/26 02:22:36;;;;;;;3.73;3.23;;;21.80;99.90;;;;;;5013643;28;20172;-69
2023/08/26 02:25:03;;;;;;;4.63;3.63;;;21.80;99.90;;;;;;5026608;28;20187;-69
2023/08/26 02:27:28;;;;;;;5.23;3.13;;;21.90;99.90;;;;;;5013128;28;20168;-71
2023/08/26 02:29:54;;;;;;;4.43;3.20;;;21.90;99.90;;;;;;5013761;28;20473;-70
2023/08/26 02:32:19;;;;;;;7.40;3.90;;;21.90;99.90;;;;;;5013366;28;20662;-71
2023/08/26 02:34:45;;;;;;;5.87;3.83;;;21.80;99.90;;;;;;5023969;28;20660;-70
2023/08/26 02:37:11;;;;;;;4.70;4.30;;;21.90;99.90;;;;;;5033254;28;20633;-70
2023/08/26 02:39:36;;;;;;;4.00;3.70;;;21.90;99.90;;;;;;5032999;28;20199;-70
2023/08/26 02:42:02;;;;;;;5.27;4.30;;;21.90;99.90;;;;;;5033115;28;20277;-71
2023/08/26 02:44:27;;;;;;;7.73;4.53;;;21.90;99.90;;;;;;5024797;28;20192;-70
2023/08/26 02:46:53;;;;;;;4.30;3.90;;;22.00;99.90;;;;;;5015736;28;20195;-70
2023/08/26 02:49:18;;;;;;;7.47;4.40;;;22.00;99.90;;;;;;5012601;28;20254;-70
2023/08/26 02:51:44;;;;;;;5.33;4.00;;;22.00;99.90;;;;;;5013032;28;20461;-70
2023/08/26 02:54:09;;;;;;;4.67;4.13;;;21.90;99.90;;;;;;5019177;28;20666;-70
2023/08/26 02:56:35;;;;;;;4.70;4.10;;;21.80;99.90;;;;;;5020684;28;20180;-71
2023/08/26 02:59:00;;;;;;;5.50;4.07;;;21.80;99.90;;;;;;5012500;28;20172;-70
2023/08/26 03:01:30;;;;;;;5.17;3.60;;;21.80;99.90;;;;;;5012751;28;20528;-70
2023/08/26 03:03:56;;;;;;;2.93;2.73;;;21.70;99.90;;;;;;5016521;28;20179;-71
2023/08/26 03:06:21;;;;;;;3.47;3.17;;;21.70;99.90;;;;;;5032195;28;20410;-70
2023/08/26 03:08:47;;;;;;;6.03;4.20;;;21.60;99.90;;;;;;5032774;28;20175;-69
2023/08/26 03:11:13;;;;;;;7.03;4.07;;;21.60;99.90;;;;;;5030950;28;20191;-69
2023/08/26 03:13:39;;;;;;;5.33;4.03;;;21.60;99.90;;;;;;5030888;28;20182;-70
2023/08/26 03:16:10;;;;;;;4.50;4.10;;;21.60;99.90;;;;;;5012695;28;20405;-71
2023/08/26 03:18:36;;;;;;;5.00;4.27;;;21.60;99.90;;;;;;5012453;28;20172;-71
2023/08/26 03:21:07;;;;;;;4.53;3.87;;;21.50;99.90;;;;;;5012305;28;20904;-70
2023/08/26 03:23:34;;;;;;;4.57;4.10;;;21.50;99.90;;;;;;5012551;28;20462;-70
2023/08/26 03:26:00;;;;;;;6.97;4.27;;;21.50;99.90;;;;;;5025152;28;20407;-70
2023/08/26 03:28:25;;;;;;;4.17;3.80;;;21.60;99.90;;;;;;5012267;28;20495;-71
2023/08/26 03:30:51;;;;;;;6.20;5.60;;;21.70;99.90;;;;;;5012139;28;20465;-71
2023/08/26 03:33:16;;;;;;;6.37;4.30;;;21.70;99.90;;;;;;5012385;28;20241;-70
2023/08/26 03:35:42;;;;;;;5.13;4.50;;;21.60;99.90;;;;;;5029840;28;20177;-71
2023/08/26 03:38:08;;;;;;;7.33;4.50;;;21.50;99.90;;;;;;5031374;28;20164;-69
2023/08/26 03:40:33;;;;;;;6.17;4.80;;;21.40;99.90;;;;;;5031996;28;20191;-70
2023/08/26 03:43:01;;;;;;;6.63;4.57;;;21.40;99.90;;;;;;5031980;28;20168;-71
2023/08/26 03:45:29;;;;;;;9.87;5.47;;;21.50;99.90;;;;;;5016046;28;20227;-71
2023/08/26 03:47:55;;;;;;;5.40;4.83;;;21.50;99.90;;;;;;5012284;28;20406;-70
2023/08/26 03:50:20;;;;;;;6.63;4.90;;;21.40;99.90;;;;;;5011660;28;20989;-70
2023/08/26 03:52:46;;;;;;;6.70;4.63;;;21.20;99.90;;;;;;5011862;28;20587;-70
2023/08/26 03:55:12;;;;;;;5.57;4.43;;;21.20;99.90;;;;;;5024538;28;20227;-70
2023/08/26 03:57:37;;;;;;;6.13;4.77;;;21.10;99.90;;;;;;5018282;28;20174;-70
2023/08/26 04:00:03;;;;;;;5.23;4.73;;;21.20;99.90;;;;;;5031357;28;20433;-70
2023/08/26 04:02:29;;;;;;;5.40;4.90;;;21.20;99.90;;;;;;5031549;28;20638;-70
2023/08/26 04:04:54;;;;;;;5.53;4.93;;;21.20;99.90;;;;;;5020002;28;20933;-70
2023/08/26 04:07:20;;;;;;;6.27;5.67;;;21.10;99.90;;;;;;5011688;28;20160;-70
2023/08/26 04:09:45;;;;;;;4.77;4.33;;;20.90;99.90;;;;;;5011607;28;20203;-70
2023/08/26 04:12:11;;;;;;;6.40;5.80;;;21.00;99.90;;;;;;5011809;28;20160;-70
2023/08/26 04:14:36;;;;;;;5.53;5.00;;;21.00;99.90;;;;;;5019954;28;20543;-71
2023/08/26 04:17:03;;;;;;;8.27;5.20;;;21.10;99.90;;;;;;5031153;28;20179;-71
2023/08/26 04:19:30;;;;;;;7.00;5.93;;;21.10;99.90;;;;;;5031185;28;20662;-71
2023/08/26 04:21:57;;;;;;;5.90;5.10;;;21.10;99.90;;;;;;5031032;28;20406;-70
2023/08/26 04:24:22;;;;;;;8.50;5.93;;;21.10;99.90;;;;;;5024746;28;20451;-70
2023/08/26 04:26:48;;;;;;;5.90;4.80;;;21.10;99.90;;;;;;5011428;28;20425;-70
2023/08/26 04:29:13;;;;;;;6.83;5.97;;;21.10;99.90;;;;;;5010984;28;20267;-70
2023/08/26 04:31:39;;;;;;;6.00;5.50;;;21.20;99.90;;;;;;5011936;28;20209;-70
2023/08/26 04:34:05;;;;;;;11.40;6.63;;;21.20;99.90;;;;;;5014999;28;20167;-70
2023/08/26 04:36:30;;;;;;;5.77;5.27;;;21.10;99.90;;;;;;5030970;28;20167;-70
2023/08/26 04:38:57;;;;;;;5.40;4.57;;;20.90;99.90;;;;;;5031365;28;20820;-70
2023/08/26 04:41:23;;;;;;;5.80;5.30;;;20.90;99.90;;;;;;5031452;28;20217;-70
2023/08/26 04:43:49;;;;;;;6.40;5.80;;;21.10;99.90;;;;;;5029348;28;20787;-71
2023/08/26 04:46:15;;;;;;;7.07;5.57;;;21.20;99.90;;;;;;5011639;28;20395;-70
2023/08/26 04:48:41;;;;;;;5.07;4.60;;;21.20;99.90;;;;;;5011954;28;20418;-70
2023/08/26 04:51:06;;;;;;;6.60;5.27;;;21.20;99.90;;;;;;5015094;28;20272;-70
2023/08/26 04:53:32;;;;;;;7.10;5.03;;;20.90;99.90;;;;;;5014731;28;20222;-70
2023/08/26 04:55:57;;;;;;;5.80;4.83;;;20.90;99.90;;;;;;5023863;28;20180;-70
2023/08/26 04:58:23;;;;;;;6.17;5.57;;;21.00;99.90;;;;;;5014916;28;20172;-70
2023/08/26 05:00:48;;;;;;;7.20;5.60;;;21.00;99.90;;;;;;5014966;28;20575;-71
2023/08/26 05:03:14;;;;;;;7.53;6.03;;;20.80;99.90;;;;;;5015061;28;20226;-70
2023/08/26 05:05:41;;;;;;;5.60;5.00;;;20.90;99.90;;;;;;5030897;28;20195;-70
2023/08/26 05:08:07;;;;;;;8.50;5.30;;;20.80;99.90;;;;;;5033712;28;20262;-70
2023/08/26 05:10:35;;;;;;;11.07;5.50;;;20.80;99.90;;;;;;5034647;28;20426;-70
2023/08/26 05:13:01;;;;;;;8.13;6.20;;;20.70;99.90;;;;;;5034420;28;20501;-69
2023/08/26 05:15:28;;;;;;;8.00;5.17;;;20.60;99.90;;;;;;5020272;28;20497;-70
2023/08/26 05:17:54;;;;;;;7.03;5.50;;;20.70;99.90;;;;;;5015107;28;20220;-70
2023/08/26 05:20:19;;;;;;;6.00;5.40;;;20.70;99.90;;;;;;5014367;28;20935;-70
2023/08/26 05:22:45;;;;;;;8.57;5.73;;;20.60;99.90;;;;;;5014732;28;20188;-70
2023/08/26 05:25:10;;;;;;;6.30;5.70;;;20.50;99.90;;;;;;5026119;28;20195;-70
2023/08/26 05:27:36;;;;;;;9.60;5.90;;;20.40;99.90;;;;;;5014777;28;20587;-71
2023/08/26 05:30:02;;;;;;;7.30;5.43;;;20.40;99.90;;;;;;5014534;28;20211;-70
2023/08/26 05:32:28;;;;;;;6.30;5.23;;;20.50;99.90;;;;;;5014664;28;20160;-71
2023/08/26 05:34:53;;;;;;;8.53;5.80;;;20.70;99.90;;;;;;5023872;28;20616;-70
2023/08/26 05:37:19;;;;;;;11.80;5.73;;;20.60;99.90;;;;;;5034469;28;20233;-70
2023/08/26 05:39:44;;;;;;;6.43;5.00;;;20.70;99.90;;;;;;5034428;28;20637;-69
2023/08/26 05:42:10;;;;;;;9.63;6.37;;;20.70;99.90;;;;;;5034442;28;20229;-71
2023/08/26 05:44:35;;;;;;;10.53;6.03;;;20.60;99.90;;;;;;5027009;28;20196;-70
2023/08/26 05:47:01;;;;;;;7.90;5.20;;;20.60;99.90;;;;;;5014879;28;20239;-70
2023/08/26 05:49:27;;;;;;;8.57;5.03;;;20.50;99.90;;;;;;5014575;28;20206;-69
2023/08/26 05:51:53;;;;;;;8.27;6.10;;;20.40;99.90;;;;;;5014036;28;20206;-70
2023/08/26 05:54:18;;;;;;;9.73;5.80;;;20.30;99.90;;;;;;5018903;28;20191;-70
2023/08/26 05:56:44;;;;;;;7.33;6.60;;;20.40;99.90;;;;;;5020824;28;20213;-70
2023/08/26 05:59:09;;;;;;;5.97;5.37;;;20.40;99.90;;;;;;5014155;28;20196;-70
2023/08/26 06:01:35;;;;;;;10.50;5.17;;;20.50;99.90;;;;;;5013476;28;20250;-71
2023/08/26 06:04:00;;;;;;;6.63;6.00;;;20.50;99.90;;;;;;5015747;28;20561;-70
2023/08/26 06:06:26;;;;;;;6.20;5.60;;;20.50;99.90;;;;;;5033435;28;20191;-70
2023/08/26 06:08:51;;;;;;;6.60;5.60;;;20.50;99.90;;;;;;5017168;28;20199;-69
2023/08/26 06:11:17;;;;;;;5.53;5.03;;;20.60;99.90;;;;;;5013874;28;20164;-70
2023/08/26 06:13:43;;;;;;;5.37;4.83;;;20.80;99.90;;;;;;5013509;28;20168;-71
2023/08/26 06:16:08;;;;;;;6.20;5.60;;;21.00;99.90;;;;;;5033008;28;20176;-70
2023/08/26 06:18:34;;;;;;;7.03;6.00;;;21.10;99.90;;;;;;5031877;28;20175;-70
2023/08/26 06:20:59;;;;;;;7.47;6.40;;;21.10;99.90;;;;;;5033406;28;20195;-70
2023/08/26 06:23:25;;;;;;;9.80;4.80;;;21.10;99.90;;;;;;5033323;28;20711;-70
2023/08/26 06:25:55;;;;;;;9.07;6.10;;;21.00;99.90;;;;;;5027554;28;20195;-71
2023/08/26 06:28:21;;;;;;;6.47;5.50;;;20.90;99.90;;;;;;5022887;28;20178;-71
2023/08/26 06:30:47;;;;;;;8.60;5.47;;;20.90;99.90;;;;;;5033261;28;20450;-70
2023/08/26 06:33:13;;;;;;;6.50;5.70;;;21.00;99.90;;;;;;5033322;28;20779;-70
2023/08/26 06:35:39;;;;;;;8.70;6.23;;;21.20;99.90;;;;;;5032716;28;20175;-70
2023/08/26 06:38:06;;;;;;;5.63;5.00;;;21.30;99.90;;;;;;5025505;28;20411;-69
2023/08/26 06:40:34;;;;;;;5.60;5.10;;;21.40;99.90;;;;;;5013742;28;20199;-71
2023/08/26 06:43:02;;;;;;;9.33;5.47;;;21.60;99.90;;;;;;5013260;28;20414;-72
2023/08/26 06:45:28;;;;;;;8.87;5.30;;;21.60;99.90;;;;;;5013096;28;20454;-70
2023/08/26 06:47:54;;;;;;;7.30;4.43;;;21.50;99.90;;;;;;5018931;28;20804;-70
2023/08/26 06:50:21;;;;;;;6.30;4.53;;;21.70;99.90;;;;;;5032447;28;20240;-70
2023/08/26 06:52:47;;;;;;;7.83;5.67;;;21.80;99.90;;;;;;5029742;28;20456;-70
2023/08/26 06:55:13;;;;;;;5.43;4.93;;;22.00;99.90;;;;;;5018340;28;20501;-70
2023/08/26 06:57:38;;;;;;;4.60;4.20;;;22.30;99.90;;;;;;5016736;28;20551;-70
2023/08/26 07:00:05;;;;;;;5.20;4.40;;;22.60;99.90;;;;;;5032710;28;20194;-70
2023/08/26 07:02:31;;;;;;;6.10;5.33;;;22.80;99.90;;;;;;5032992;28;20163;-71
2023/08/26 07:04:56;;;;;;;4.90;4.40;;;22.90;99.90;;;;;;5032250;28;20446;-68
2023/08/26 07:07:22;;;;;;;7.73;5.87;;;22.90;99.90;;;;;;5031419;28;20238;-70
2023/08/26 07:09:48;;;;;;;10.03;5.27;;;22.80;99.90;;;;;;5012718;28;20631;-70
2023/08/26 07:12:14;;;;;;;6.43;5.10;;;22.80;99.90;;;;;;5012574;28;20223;-71
2023/08/26 07:14:40;;;;;;;6.50;5.07;;;22.90;99.90;;;;;;5012811;28;20572;-70
2023/08/26 07:17:06;;;;;;;9.27;5.97;;;23.00;99.90;;;;;;5011438;28;20419;-71
2023/08/26 07:19:31;;;;;;;6.53;4.70;;;23.10;99.90;;;;;;5031106;28;20275;-70
2023/08/26 07:21:57;;;;;;;6.03;4.80;;;22.90;99.90;;;;;;5031966;28;20167;-70
2023/08/26 07:24:22;;;;;;;6.70;4.90;;;23.00;99.90;;;;;;5031882;28;20202;-69
2023/08/26 07:26:48;;;;;;;6.03;4.20;;;23.10;99.90;;;;;;5018113;28;20669;-70
2023/08/26 07:29:13;;;;;;;7.37;4.90;;;23.30;99.90;;;;;;5027839;28;20647;-70
2023/08/26 07:31:41;;;;;;;7.47;4.70;;;23.30;99.90;;;;;;5030538;28;20263;-70
2023/08/26 07:34:06;;;;;;;9.73;4.57;;;23.40;99.90;;;;;;5031965;28;20430;-70
2023/08/26 07:36:32;;;;;;;4.73;3.40;;;23.60;99.90;;;;;;5017967;28;20443;-70
2023/08/26 07:38:58;;;;;;;4.87;3.67;;;23.50;99.90;;;;;;5011978;28;20172;-71
2023/08/26 07:41:24;;;;;;;4.67;4.20;;;23.40;99.90;;;;;;5011907;28;20179;-69
2023/08/26 07:43:49;;;;;;;6.60;4.50;;;23.50;99.90;;;;;;5011459;28;20855;-71
2023/08/26 07:46:18;;;;;;;6.30;4.07;;;23.40;99.90;;;;;;5022962;28;20168;-71
2023/08/26 07:48:44;;;;;;;7.03;4.70;;;23.50;99.90;;;;;;5030317;28;20167;-70
2023/08/26 07:51:10;;;;;;;6.23;4.20;;;23.50;99.90;;;;;;5031630;28;20437;-70
2023/08/26 07:53:35;;;;;;;6.37;4.20;;;23.80;99.90;;;;;;5031839;28;20409;-72
2023/08/26 07:56:01;;;;;;;6.93;4.47;;;24.00;99.90;;;;;;5021963;28;20176;-71
2023/08/26 07:58:27;;;;;;;6.70;4.10;;;24.20;99.90;;;;;;5011515;28;20172;-71
2023/08/26 08:00:52;;;;;;;7.80;4.93;;;24.00;99.90;;;;;;5012083;28;20341;-69
2023/08/26 08:03:18;;;;;;;7.73;5.40;;;24.00;99.90;;;;;;5030277;28;20182;-71
2023/08/26 08:05:43;;;;;;;5.57;3.57;;;24.10;99.90;;;;;;5024488;28;20663;-71
2023/08/26 08:08:09;;;;;;;4.47;4.00;;;24.10;99.90;;;;;;5012058;28;20215;-70
2023/08/26 08:10:35;;;;;;;5.23;3.80;;;24.20;99.90;;;;;;5012505;28;20222;-71
2023/08/26 08:13:00;;;;;;;7.83;4.50;;;24.00;99.90;;;;;;5011790;28;20523;-71
2023/08/26 08:15:26;;;;;;;5.70;4.13;;;23.90;99.90;;;;;;5016138;28;20171;-71
2023/08/26 08:17:52;;;;;;;4.70;3.43;;;23.40;99.90;;;;;;5031542;28;20233;-71
2023/08/26 08:20:19;;;;;;;5.80;4.47;;;23.10;99.90;;;;;;5029536;28;20199;-70
2023/08/26 08:22:45;;;;;;;6.23;4.20;;;23.20;99.90;;;;;;5031489;28;20168;-69
2023/08/26 08:25:11;;;;;;;4.90;4.47;;;23.30;99.90;;;;;;5028817;28;20762;-70
2023/08/26 08:27:38;;;;;;;5.00;4.17;;;23.50;99.90;;;;;;5010932;28;20580;-70
2023/08/26 08:30:05;;;;;;;5.70;4.13;;;23.60;99.90;;;;;;5036211;23;20353;-69
2023/08/26 08:32:32;;;;;;;5.63;4.50;;;23.90;99.90;;;;;;5033494;28;20402;-70
2023/08/26 08:34:58;;;;;;;5.07;4.00;;;23.80;99.90;;;;;;5033339;28;20398;-70
2023/08/26 08:37:24;;;;;;;6.23;4.03;;;23.30;99.90;;;;;;5032456;28;20405;-70
2023/08/26 08:39:50;;;;;;;6.90;4.60;;;23.30;99.90;;;;;;5033342;28;20480;-70
2023/08/26 08:42:21;;;;;;;8.20;4.80;;;23.30;99.90;;;;;;5033045;28;20229;-73
2023/08/26 08:44:47;;;;;;;6.43;4.53;;;23.50;99.90;;;;;;5032465;28;20198;-71
2023/08/26 08:47:13;;;;;;;7.60;5.33;;;23.60;99.90;;;;;;5032542;28;20418;-71
2023/08/26 08:49:41;;;;;;;5.33;4.20;;;23.80;99.90;;;;;;5032651;28;20476;-71
2023/08/26 08:52:07;;;;;;;7.67;5.30;;;23.90;99.90;;;;;;5032391;28;20167;-71
2023/08/26 08:54:34;;;;;;;6.03;4.00;;;24.00;99.90;;;;;;5032525;28;20414;-71
2023/08/26 08:57:00;;;;;;;5.60;4.53;;;24.10;99.90;;;;;;5032870;28;20493;-71
2023/08/26 08:59:27;;;;;;;5.93;4.43;;;24.20;99.90;;;;;;5032397;28;20840;-71
2023/08/26 09:01:55;;;;;;;6.17;4.10;;;24.30;99.90;;;;;;5031986;28;20505;-71
2023/08/26 09:04:21;;;;;;;5.13;4.13;;;24.10;99.90;;;;;;5032588;28;20442;-70
2023/08/26 09:06:48;;;;;;;7.90;4.50;;;24.00;99.90;;;;;;5032306;28;20407;-71
2023/08/26 09:09:16;;;;;;;8.10;4.47;;;24.00;99.90;;;;;;5032528;28;20406;-71
2023/08/26 09:11:41;;;;;;;6.43;4.80;;;24.30;99.90;;;;;;5032460;28;20891;-71
2023/08/26 09:14:07;;;;;;;7.50;4.70;;;24.30;99.90;;;;;;5032367;28;20540;-71
2023/08/26 09:16:40;;;;;;;6.87;3.70;;;24.10;99.90;;;;;;5032607;28;20646;-71
2023/08/26 09:19:07;;;;;;;6.27;5.53;;;24.30;99.90;;;;;;5032499;28;20519;-71
2023/08/26 09:21:33;;;;;;;4.57;4.07;;;24.50;99.90;;;;;;5033142;28;20464;-71
2023/08/26 09:24:00;;;;;;;5.17;4.33;;;24.50;99.90;;;;;;5032244;28;20442;-71
2023/08/26 09:26:26;;;;;;;4.77;4.00;;;24.40;99.90;;;;;;5032259;28;20167;-71
2023/08/26 09:28:53;;;;;;;6.23;4.33;;;24.40;99.90;;;;;;5032236;28;20440;-70
2023/08/26 09:31:19;;;;;;;4.43;3.37;;;24.50;99.90;;;;;;5032940;28;20442;-71
2023/08/26 09:33:59;;;;;;;7.20;4.83;;;24.90;99.90;;;;;;5032925;28;20406;-71
2023/08/26 09:36:39;;;;;;;4.27;3.83;;;24.90;99.90;;;;;;5034018;28;20386;-70
2023/08/26 09:39:12;;;;;;;7.07;4.77;;;25.00;99.90;;;;;;5036074;28;20437;-71
2023/08/26 09:41:38;;;;;;;6.43;4.00;;;25.20;99.90;;;;;;5018268;28;20956;-71
2023/08/26 09:44:04;;;;;;;6.43;3.80;;;25.30;99.90;;;;;;5036005;28;20477;-71
2023/08/26 09:46:37;;;;;;;4.10;3.70;;;25.40;99.90;;;;;;5018419;28;20221;-71
2023/08/26 09:49:03;;;;;;;7.23;4.07;;;25.50;99.90;;;;;;5036539;28;20425;-71
2023/08/26 09:51:30;;;;;;;6.67;5.03;;;25.10;99.90;;;;;;5036136;28;20432;-70
2023/08/26 09:53:56;;;;;;;7.70;5.40;;;24.60;99.90;;;;;;5048648;28;20406;-71
2023/08/26 09:56:27;;;;;;;7.03;5.00;;;24.30;99.90;;;;;;5046640;28;20930;-70
2023/08/26 09:58:54;;;;;;;6.60;4.60;;;23.90;99.90;;;;;;5042979;28;20780;-71
2023/08/26 10:01:21;;;;;;;5.73;4.70;;;23.90;99.90;;;;;;5042831;28;20458;-71
2023/08/26 10:03:53;;;;;;;4.83;3.70;;;23.70;99.90;;;;;;5043340;28;20440;-70
2023/08/26 10:06:25;;;;;;;8.10;5.07;;;23.70;99.90;;;;;;5047869;28;20767;-70
2023/08/26 10:09:05;;;;;;;7.00;4.57;;;23.50;99.90;;;;;;5048941;28;20462;-69
2023/08/26 10:11:33;;;;;;;6.40;4.30;;;23.40;99.90;;;;;;5048180;28;20422;-71
2023/08/26 10:14:00;;;;;;;5.63;5.03;;;23.40;99.90;;;;;;5049582;28;20412;-70
2023/08/26 10:16:27;;;;;;;5.90;4.90;;;23.20;99.90;;;;;;5049570;28;20402;-70
2023/08/26 10:18:58;;;;;;;5.67;5.03;;;23.10;99.90;;;;;;5050291;28;20406;-70
2023/08/26 10:21:24;;;;;;;5.93;5.33;;;22.90;99.90;;;;;;5047806;28;20430;-71
2023/08/26 10:23:50;;;;;;;7.97;5.50;;;22.90;99.90;;;;;;5035131;28;20803;-70
2023/08/26 10:26:19;;;;;;;6.67;5.40;;;22.80;99.90;;;;;;5034886;28;20172;-71
2023/08/26 10:28:47;;;;;;;6.43;4.60;;;22.90;99.90;;;;;;5034972;28;20251;-70
2023/08/26 10:31:14;;;;;;;5.97;4.70;;;22.80;99.90;;;;;;5034873;28;20442;-70
2023/08/26 10:34:01;;;;;;;5.17;4.60;;;22.70;99.90;;;;;;5034938;28;20440;-70
2023/08/26 10:36:27;;;;;;;5.27;4.20;;;22.50;99.90;;;;;;5034375;28;20465;-69
2023/08/26 10:38:59;;;;;;;5.60;4.37;;;22.20;99.90;;;;;;5034760;28;20904;-70
2023/08/26 10:41:28;;;;;;;6.00;4.50;;;22.40;99.90;;;;;;5035129;28;20867;-71
2023/08/26 10:43:55;;;;;;;5.27;4.77;;;22.50;99.90;;;;;;5034510;28;21094;-70
2023/08/26 10:46:37;;;;;;;5.30;4.80;;;22.50;99.90;;;;;;5033949;28;20485;-70
2023/08/26 10:49:03;;;;;;;6.27;4.13;;;22.80;99.90;;;;;;5034915;28;20390;-71
2023/08/26 10:51:30;;;;;;;7.17;4.70;;;22.90;99.90;;;;;;5034393;28;20448;-71
2023/08/26 10:54:05;;;;;;;5.77;5.10;;;22.90;99.90;;;;;;5034661;28;20425;-71
2023/08/26 10:56:34;;;;;;;4.83;4.23;;;22.70;99.90;;;;;;5034317;28;20397;-70
2023/08/26 10:59:01;;;;;;;7.37;5.43;;;22.80;99.90;;;;;;5033955;28;20410;-71
2023/08/26 11:01:29;;;;;;;4.70;4.30;;;22.90;99.90;;;;;;5034422;28;20450;-71
2023/08/26 11:03:57;;;;;;;6.67;5.20;;;22.90;99.90;;;;;;5033734;28;20445;-70
2023/08/26 11:06:24;;;;;;;6.53;4.93;;;23.10;99.90;;;;;;5034133;28;20969;-70
2023/08/26 11:08:57;;;;;;;7.17;4.60;;;23.20;99.90;;;;;;5034202;28;20545;-70
2023/08/26 11:11:24;;;;;;;4.90;4.27;;;23.40;99.90;;;;;;5034316;28;20501;-70
2023/08/26 11:13:50;;;;;;;6.10;4.80;;;23.70;99.90;;;;;;5033878;28;20409;-70
2023/08/26 11:16:16;;;;;;;6.97;4.60;;;23.90;99.90;;;;;;5034125;28;20398;-70
2023/08/26 11:18:42;;;;;;;5.57;4.87;;;23.70;99.90;;;;;;5033963;28;20168;-70
2023/08/26 11:21:08;;;;;;;6.47;4.53;;;23.90;99.90;;;;;;5033902;28;20951;-70
2023/08/26 11:23:34;;;;;;;6.67;5.10;;;23.90;99.90;;;;;;5034129;28;20434;-70
2023/08/26 11:25:59;;;;;;;5.07;4.57;;;23.50;99.90;;;;;;5032909;28;20172;-70
2023/08/26 11:28:31;;;;;;;12.73;5.40;;;23.60;99.90;;;;;;5033276;28;20183;-70
2023/08/26 11:30:57;;;;;;;5.43;4.90;;;23.60;99.90;;;;;;5033966;28;20294;-71
2023/08/26 11:33:26;;;;;;;5.63;4.50;;;23.60;99.90;;;;;;5034917;28;20461;-71
2023/08/26 11:35:52;;;;;;;6.20;4.47;;;23.30;99.90;;;;;;5034444;28;20176;-70
2023/08/26 11:38:17;;;;;;;5.77;4.63;;;23.50;99.90;;;;;;5034889;28;20414;-71
2023/08/26 11:40:45;;;;;;;5.97;4.43;;;23.10;99.90;;;;;;5034384;28;20274;-71
2023/08/26 11:43:12;;;;;;;5.83;4.40;;;23.30;99.90;;;;;;5033651;28;20179;-71
2023/08/26 11:45:39;;;;;;;7.00;5.37;;;23.50;99.90;;;;;;5033579;28;20897;-71
2023/08/26 11:48:06;;;;;;;5.97;4.37;;;23.50;99.90;;;;;;5033681;28;20434;-71
2023/08/26 11:50:35;;;;;;;6.60;4.77;;;23.50;99.90;;;;;;5033143;28;20430;-71
2023/08/26 11:53:04;;;;;;;7.10;4.90;;;23.50;99.90;;;;;;5015226;28;20418;-71
2023/08/26 11:55:31;;;;;;;8.07;4.93;;;23.30;99.90;;;;;;5033417;28;20404;-71
2023/08/26 11:57:58;;;;;;;6.47;4.50;;;23.00;99.90;;;;;;5032506;28;20410;-71
2023/08/26 12:00:24;;;;;;;5.50;4.90;;;23.10;99.90;;;;;;5032444;28;20434;-71
2023/08/26 12:02:51;;;;;;;7.90;4.90;;;23.20;99.90;;;;;;5033399;28;20456;-70
2023/08/26 12:05:18;;;;;;;7.10;5.80;;;23.20;99.90;;;;;;5033315;28;20554;-70
2023/08/26 12:07:49;;;;;;;7.40;5.50;;;23.20;99.90;;;;;;5032758;28;20438;-70
2023/08/26 12:10:18;;;;;;;7.10;6.17;;;22.90;99.90;;;;;;5032826;28;20440;-70
2023/08/26 12:12:45;;;;;;;5.70;5.10;;;22.70;99.90;;;;;;5032607;28;20457;-70
2023/08/26 12:15:15;;;;;;;7.40;5.40;;;22.90;99.90;;;;;;5032695;28;20456;-70
2023/08/26 12:17:54;;;;;;;6.80;5.53;;;22.80;99.90;;;;;;5032962;28;20434;-71
2023/08/26 12:20:24;;;;;;;5.90;5.30;;;22.70;99.90;;;;;;5033107;28;20429;-70
2023/08/26 12:22:51;;;;;;;7.70;5.30;;;22.90;99.90;;;;;;5032601;28;20410;-70
2023/08/26 12:25:28;;;;;;;7.20;5.57;;;22.90;99.90;;;;;;5032759;28;20532;-71
2023/08/26 12:28:08;;;;;;;5.97;5.37;;;22.80;99.90;;;;;;5032503;28;20402;-70
2023/08/26 12:30:34;;;;;;;10.03;6.67;;;22.60;99.90;;;;;;5032572;28;20859;-70
2023/08/26 12:32:59;;;;;;;7.10;6.40;;;22.50;99.90;;;;;;5032972;28;20413;-70
2023/08/26 12:35:25;;;;;;;8.70;6.20;;;22.30;99.90;;;;;;5032157;28;20254;-69
2023/08/26 12:37:50;;;;;;;7.60;6.90;;;22.00;99.90;;;;;;5014679;28;20258;-70
2023/08/26 12:40:16;;;;;;;9.87;7.50;;;22.00;99.90;;;;;;5032703;28;20190;-70
2023/08/26 12:42:41;;;;;;;10.47;7.20;;;21.80;99.90;;;;;;5032466;28;20649;-70